Time,TemperatureF,DewpointF,PressureIn,WindDirection,WindDirectionDegrees,WindSpeedMPH,WindSpeedGustMPH,Humidity,HourlyPrecipIn,Conditions,Clouds,dailyrainin,SoftwareType,DateUTC
2013-02-05 00:00:00,23.2,13.4,29.72,North,-999,-999.0,-999.0,54,-99.99,,,-99.99,Homeseer,2013-02-05 05:00:00,
2013-02-05 00:01:00,23.2,13.4,29.72,North,-999,-999.0,-999.0,54,-99.99,,,-99.99,Homeseer,2013-02-05 05:01:00,
2013-02-05 00:06:00,23.0,13.2,29.71,North,-999,-999.0,-999.0,54,-99.99,,,-99.99,Homeseer,2013-02-05 05:06:00,
2013-02-05 00:11:00,23.0,13.2,29.72,North,-999,-999.0,-999.0,54,-99.99,,,-99.99,Homeseer,2013-02-05 05:11:00,
2013-02-05 00:16:00,22.8,13.3,29.72,North,-999,-999.0,-999.0,55,-99.99,,,-99.99,Homeseer,2013-02-05 05:16:00,
2013-02-05 00:21:00,22.7,13.2,29.73,North,-999,-999.0,-999.0,55,-99.99,,,-99.99,Homeseer,2013-02-05 05:21:00,
2013-02-05 00:26:00,22.7,13.5,29.73,North,-999,-999.0,-999.0,56,-99.99,,,-99.99,Homeseer,2013-02-05 05:26:00,
2013-02-05 00:28:00,22.6,13.4,29.73,North,-999,-999.0,-999.0,56,-99.99,,,-99.99,Homeseer,2013-02-05 05:28:00,
2013-02-05 00:30:00,22.7,13.5,29.73,North,-999,-999.0,-999.0,56,-99.99,,,-99.99,Homeseer,2013-02-05 05:30:00,
2013-02-05 00:35:00,22.2,13.3,29.72,North,-999,-999.0,-999.0,57,-99.99,,,-99.99,Homeseer,2013-02-05 05:35:00,
2013-02-05 00:40:00,22.4,13.5,29.72,North,-999,-999.0,-999.0,57,-99.99,,,-99.99,Homeseer,2013-02-05 05:40:00,
2013-02-05 00:45:00,22.4,13.7,29.72,North,-999,-999.0,-999.0,58,-99.99,,,-99.99,Homeseer,2013-02-05 05:45:00,
2013-02-05 00:50:00,22.2,13.5,29.72,North,-999,-999.0,-999.0,58,-99.99,,,-99.99,Homeseer,2013-02-05 05:50:00,
2013-02-05 00:56:00,22.2,13.8,29.73,North,-999,-999.0,-999.0,59,-99.99,,,-99.99,Homeseer,2013-02-05 05:56:00,
2013-02-05 01:01:00,22.1,13.7,29.73,North,-999,-999.0,-999.0,59,-99.99,,,-99.99,Homeseer,2013-02-05 06:01:00,
2013-02-05 01:06:00,22.3,13.9,29.73,North,-999,-999.0,-999.0,59,-99.99,,,-99.99,Homeseer,2013-02-05 06:06:00,
2013-02-05 01:11:00,22.6,14.2,29.73,North,-999,-999.0,-999.0,59,-99.99,,,-99.99,Homeseer,2013-02-05 06:11:00,
2013-02-05 01:16:00,22.8,14.1,29.73,North,-999,-999.0,-999.0,58,-99.99,,,-99.99,Homeseer,2013-02-05 06:16:00,
2013-02-05 01:21:00,23.0,14.6,29.73,North,-999,-999.0,-999.0,59,-99.99,,,-99.99,Homeseer,2013-02-05 06:21:00,
2013-02-05 01:26:00,23.2,14.5,29.74,North,-999,-999.0,-999.0,58,-99.99,,,-99.99,Homeseer,2013-02-05 06:26:00,
2013-02-05 01:31:00,23.2,14.5,29.74,North,-999,-999.0,-999.0,58,-99.99,,,-99.99,Homeseer,2013-02-05 06:31:00,
2013-02-05 01:36:00,23.2,15.0,29.74,North,-999,-999.0,-999.0,60,-99.99,,,-99.99,Homeseer,2013-02-05 06:36:00,
2013-02-05 01:41:00,23.3,14.8,29.75,North,-999,-999.0,-999.0,59,-99.99,,,-99.99,Homeseer,2013-02-05 06:41:00,
2013-02-05 01:46:00,23.2,15.5,29.75,North,-999,-999.0,-999.0,62,-99.99,,,-99.99,Homeseer,2013-02-05 06:46:00,
2013-02-05 01:51:00,23.3,14.8,29.75,North,-999,-999.0,-999.0,59,-99.99,,,-99.99,Homeseer,2013-02-05 06:51:00,
2013-02-05 01:56:00,23.2,14.7,29.75,North,-999,-999.0,-999.0,59,-99.99,,,-99.99,Homeseer,2013-02-05 06:56:00,
2013-02-05 02:01:00,23.4,15.2,29.75,North,-999,-999.0,-999.0,60,-99.99,,,-99.99,Homeseer,2013-02-05 07:01:00,
2013-02-05 02:06:00,23.6,15.4,29.75,North,-999,-999.0,-999.0,60,-99.99,,,-99.99,Homeseer,2013-02-05 07:06:00,
2013-02-05 02:11:00,23.6,15.6,29.75,North,-999,-999.0,-999.0,61,-99.99,,,-99.99,Homeseer,2013-02-05 07:11:00,
2013-02-05 02:16:00,23.4,15.4,29.75,North,-999,-999.0,-999.0,61,-99.99,,,-99.99,Homeseer,2013-02-05 07:16:00,
2013-02-05 02:22:00,23.6,15.6,29.75,North,-999,-999.0,-999.0,61,-99.99,,,-99.99,Homeseer,2013-02-05 07:22:00,
2013-02-05 02:27:00,23.7,15.5,29.75,North,-999,-999.0,-999.0,60,-99.99,,,-99.99,Homeseer,2013-02-05 07:27:00,
2013-02-05 02:32:00,23.6,15.6,29.74,North,-999,-999.0,-999.0,61,-99.99,,,-99.99,Homeseer,2013-02-05 07:32:00,
2013-02-05 02:37:00,23.9,15.7,29.74,North,-999,-999.0,-999.0,60,-99.99,,,-99.99,Homeseer,2013-02-05 07:37:00,
2013-02-05 02:42:00,24.0,16.0,29.74,North,-999,-999.0,-999.0,61,-99.99,,,-99.99,Homeseer,2013-02-05 07:42:00,
2013-02-05 02:47:00,24.0,15.5,29.73,North,-999,-999.0,-999.0,59,-99.99,,,-99.99,Homeseer,2013-02-05 07:47:00,
2013-02-05 02:52:00,24.2,15.4,29.74,North,-999,-999.0,-999.0,58,-99.99,,,-99.99,Homeseer,2013-02-05 07:52:00,
2013-02-05 02:57:00,24.1,15.6,29.74,North,-999,-999.0,-999.0,59,-99.99,,,-99.99,Homeseer,2013-02-05 07:57:00,
2013-02-05 03:02:00,23.8,15.3,29.74,North,-999,-999.0,-999.0,59,-99.99,,,-99.99,Homeseer,2013-02-05 08:02:00,
2013-02-05 03:07:00,23.7,15.5,29.74,North,-999,-999.0,-999.0,60,-99.99,,,-99.99,Homeseer,2013-02-05 08:07:00,
2013-02-05 03:12:00,23.8,15.6,29.75,North,-999,-999.0,-999.0,60,-99.99,,,-99.99,Homeseer,2013-02-05 08:12:00,
2013-02-05 03:17:00,23.8,15.8,29.75,North,-999,-999.0,-999.0,61,-99.99,,,-99.99,Homeseer,2013-02-05 08:17:00,
2013-02-05 03:22:00,23.7,15.5,29.75,North,-999,-999.0,-999.0,60,-99.99,,,-99.99,Homeseer,2013-02-05 08:22:00,
2013-02-05 03:27:00,23.9,15.7,29.75,North,-999,-999.0,-999.0,60,-99.99,,,-99.99,Homeseer,2013-02-05 08:27:00,
2013-02-05 03:32:00,24.0,15.5,29.75,North,-999,-999.0,-999.0,59,-99.99,,,-99.99,Homeseer,2013-02-05 08:32:00,
2013-02-05 03:37:00,24.1,15.6,29.75,North,-999,-999.0,-999.0,59,-99.99,,,-99.99,Homeseer,2013-02-05 08:37:00,
2013-02-05 03:42:00,24.1,15.6,29.75,North,-999,-999.0,-999.0,59,-99.99,,,-99.99,Homeseer,2013-02-05 08:42:00,
2013-02-05 03:47:00,24.0,15.8,29.75,North,-999,-999.0,-999.0,60,-99.99,,,-99.99,Homeseer,2013-02-05 08:47:00,
2013-02-05 03:52:00,24.0,15.8,29.75,North,-999,-999.0,-999.0,60,-99.99,,,-99.99,Homeseer,2013-02-05 08:52:00,
2013-02-05 03:57:00,24.0,16.0,29.75,North,-999,-999.0,-999.0,61,-99.99,,,-99.99,Homeseer,2013-02-05 08:57:00,
2013-02-05 04:02:00,24.0,16.3,29.75,North,-999,-999.0,-999.0,62,-99.99,,,-99.99,Homeseer,2013-02-05 09:02:00,
2013-02-05 04:07:00,24.2,16.2,29.75,North,-999,-999.0,-999.0,61,-99.99,,,-99.99,Homeseer,2013-02-05 09:07:00,
2013-02-05 04:12:00,24.2,15.9,29.75,North,-999,-999.0,-999.0,60,-99.99,,,-99.99,Homeseer,2013-02-05 09:12:00,
2013-02-05 04:17:00,24.2,15.9,29.75,North,-999,-999.0,-999.0,60,-99.99,,,-99.99,Homeseer,2013-02-05 09:17:00,
2013-02-05 04:22:00,24.1,16.1,29.75,North,-999,-999.0,-999.0,61,-99.99,,,-99.99,Homeseer,2013-02-05 09:22:00,
2013-02-05 04:27:00,23.9,16.4,29.75,North,-999,-999.0,-999.0,63,-99.99,,,-99.99,Homeseer,2013-02-05 09:27:00,
2013-02-05 04:32:00,23.8,16.1,29.75,North,-999,-999.0,-999.0,62,-99.99,,,-99.99,Homeseer,2013-02-05 09:32:00,
2013-02-05 04:37:00,23.9,16.2,29.76,North,-999,-999.0,-999.0,62,-99.99,,,-99.99,Homeseer,2013-02-05 09:37:00,
2013-02-05 04:42:00,23.7,16.2,29.76,North,-999,-999.0,-999.0,63,-99.99,,,-99.99,Homeseer,2013-02-05 09:42:00,
2013-02-05 04:47:00,23.6,15.9,29.76,North,-999,-999.0,-999.0,62,-99.99,,,-99.99,Homeseer,2013-02-05 09:47:00,
2013-02-05 04:52:00,23.7,16.2,29.76,North,-999,-999.0,-999.0,63,-99.99,,,-99.99,Homeseer,2013-02-05 09:52:00,
2013-02-05 04:57:00,23.8,16.8,29.77,North,-999,-999.0,-999.0,65,-99.99,,,-99.99,Homeseer,2013-02-05 09:57:00,
2013-02-05 05:02:00,23.8,16.8,29.76,North,-999,-999.0,-999.0,65,-99.99,,,-99.99,Homeseer,2013-02-05 10:02:00,
2013-02-05 05:07:00,23.8,16.6,29.76,North,-999,-999.0,-999.0,64,-99.99,,,-99.99,Homeseer,2013-02-05 10:07:00,
2013-02-05 05:12:00,23.8,16.6,29.76,North,-999,-999.0,-999.0,64,-99.99,,,-99.99,Homeseer,2013-02-05 10:12:00,
2013-02-05 05:17:00,23.8,16.8,29.76,North,-999,-999.0,-999.0,65,-99.99,,,-99.99,Homeseer,2013-02-05 10:17:00,
2013-02-05 05:22:00,23.7,16.5,29.75,North,-999,-999.0,-999.0,64,-99.99,,,-99.99,Homeseer,2013-02-05 10:22:00,
2013-02-05 05:27:00,23.8,17.1,29.75,North,-999,-999.0,-999.0,66,-99.99,,,-99.99,Homeseer,2013-02-05 10:27:00,
2013-02-05 05:32:00,23.9,16.9,29.76,North,-999,-999.0,-999.0,65,-99.99,,,-99.99,Homeseer,2013-02-05 10:32:00,
2013-02-05 05:37:00,23.8,16.8,29.75,North,-999,-999.0,-999.0,65,-99.99,,,-99.99,Homeseer,2013-02-05 10:37:00,
2013-02-05 05:42:00,23.8,16.6,29.75,North,-999,-999.0,-999.0,64,-99.99,,,-99.99,Homeseer,2013-02-05 10:42:00,
2013-02-05 05:47:00,23.9,16.4,29.76,North,-999,-999.0,-999.0,63,-99.99,,,-99.99,Homeseer,2013-02-05 10:47:00,
2013-02-05 05:52:00,23.9,16.7,29.76,North,-999,-999.0,-999.0,64,-99.99,,,-99.99,Homeseer,2013-02-05 10:52:00,
2013-02-05 05:57:00,24.0,16.8,29.76,North,-999,-999.0,-999.0,64,-99.99,,,-99.99,Homeseer,2013-02-05 10:57:00,
2013-02-05 06:02:00,23.9,17.2,29.77,North,-999,-999.0,-999.0,66,-99.99,,,-99.99,Homeseer,2013-02-05 11:02:00,
2013-02-05 06:07:00,23.9,16.9,29.77,North,-999,-999.0,-999.0,65,-99.99,,,-99.99,Homeseer,2013-02-05 11:07:00,
2013-02-05 06:12:00,23.9,16.9,29.77,North,-999,-999.0,-999.0,65,-99.99,,,-99.99,Homeseer,2013-02-05 11:12:00,
2013-02-05 06:17:00,23.9,16.9,29.77,North,-999,-999.0,-999.0,65,-99.99,,,-99.99,Homeseer,2013-02-05 11:17:00,
2013-02-05 06:22:00,23.9,16.9,29.77,North,-999,-999.0,-999.0,65,-99.99,,,-99.99,Homeseer,2013-02-05 11:22:00,
2013-02-05 06:27:00,23.8,16.6,29.77,North,-999,-999.0,-999.0,64,-99.99,,,-99.99,Homeseer,2013-02-05 11:27:00,
2013-02-05 06:32:00,23.8,17.1,29.78,North,-999,-999.0,-999.0,66,-99.99,,,-99.99,Homeseer,2013-02-05 11:32:00,
2013-02-05 06:37:00,23.9,16.9,29.78,North,-999,-999.0,-999.0,65,-99.99,,,-99.99,Homeseer,2013-02-05 11:37:00,
2013-02-05 06:42:00,23.9,16.9,29.78,North,-999,-999.0,-999.0,65,-99.99,,,-99.99,Homeseer,2013-02-05 11:42:00,
2013-02-05 06:47:00,23.9,16.9,29.79,North,-999,-999.0,-999.0,65,-99.99,,,-99.99,Homeseer,2013-02-05 11:47:00,
2013-02-05 06:52:00,23.8,17.3,29.79,North,-999,-999.0,-999.0,67,-99.99,,,-99.99,Homeseer,2013-02-05 11:52:00,
2013-02-05 06:57:00,24.0,17.0,29.79,North,-999,-999.0,-999.0,65,-99.99,,,-99.99,Homeseer,2013-02-05 11:57:00,
2013-02-05 07:02:00,23.9,16.9,29.79,North,-999,-999.0,-999.0,65,-99.99,,,-99.99,Homeseer,2013-02-05 12:02:00,
2013-02-05 07:07:00,23.9,17.2,29.79,North,-999,-999.0,-999.0,66,-99.99,,,-99.99,Homeseer,2013-02-05 12:07:00,
2013-02-05 07:12:00,24.0,17.0,29.79,North,-999,-999.0,-999.0,65,-99.99,,,-99.99,Homeseer,2013-02-05 12:12:00,
2013-02-05 07:17:00,23.8,17.1,29.80,North,-999,-999.0,-999.0,66,-99.99,,,-99.99,Homeseer,2013-02-05 12:17:00,
2013-02-05 07:22:00,23.9,16.9,29.80,North,-999,-999.0,-999.0,65,-99.99,,,-99.99,Homeseer,2013-02-05 12:22:00,
2013-02-05 07:27:00,23.9,17.2,29.80,North,-999,-999.0,-999.0,66,-99.99,,,-99.99,Homeseer,2013-02-05 12:27:00,
2013-02-05 07:32:00,24.1,17.1,29.81,North,-999,-999.0,-999.0,65,-99.99,,,-99.99,Homeseer,2013-02-05 12:32:00,
2013-02-05 07:37:00,24.1,17.3,29.81,North,-999,-999.0,-999.0,66,-99.99,,,-99.99,Homeseer,2013-02-05 12:37:00,
2013-02-05 07:42:00,24.1,17.3,29.82,North,-999,-999.0,-999.0,66,-99.99,,,-99.99,Homeseer,2013-02-05 12:42:00,
2013-02-05 07:47:00,24.5,17.7,29.82,North,-999,-999.0,-999.0,66,-99.99,,,-99.99,Homeseer,2013-02-05 12:47:00,
2013-02-05 07:52:00,24.5,17.7,29.83,North,-999,-999.0,-999.0,66,-99.99,,,-99.99,Homeseer,2013-02-05 12:52:00,
2013-02-05 07:57:00,24.8,18.0,29.83,North,-999,-999.0,-999.0,66,-99.99,,,-99.99,Homeseer,2013-02-05 12:57:00,
2013-02-05 08:02:00,24.9,17.9,29.84,North,-999,-999.0,-999.0,65,-99.99,,,-99.99,Homeseer,2013-02-05 13:02:00,
2013-02-05 08:07:00,25.2,18.2,29.84,North,-999,-999.0,-999.0,65,-99.99,,,-99.99,Homeseer,2013-02-05 13:07:00,
2013-02-05 08:12:00,25.5,17.9,29.84,North,-999,-999.0,-999.0,63,-99.99,,,-99.99,Homeseer,2013-02-05 13:12:00,
2013-02-05 08:17:00,25.7,18.1,29.84,North,-999,-999.0,-999.0,63,-99.99,,,-99.99,Homeseer,2013-02-05 13:17:00,
2013-02-05 08:22:00,25.9,18.3,29.84,North,-999,-999.0,-999.0,63,-99.99,,,-99.99,Homeseer,2013-02-05 13:22:00,
2013-02-05 08:27:00,26.0,18.2,29.83,North,-999,-999.0,-999.0,62,-99.99,,,-99.99,Homeseer,2013-02-05 13:27:00,
2013-02-05 08:32:00,26.0,18.2,29.85,North,-999,-999.0,-999.0,62,-99.99,,,-99.99,Homeseer,2013-02-05 13:32:00,
2013-02-05 08:37:00,26.4,18.3,29.85,North,-999,-999.0,-999.0,61,-99.99,,,-99.99,Homeseer,2013-02-05 13:37:00,
2013-02-05 08:42:00,26.6,17.9,29.85,North,-999,-999.0,-999.0,59,-99.99,,,-99.99,Homeseer,2013-02-05 13:42:00,
2013-02-05 08:47:00,26.8,17.8,29.84,North,-999,-999.0,-999.0,58,-99.99,,,-99.99,Homeseer,2013-02-05 13:47:00,
2013-02-05 08:52:00,27.2,17.9,29.85,North,-999,-999.0,-999.0,57,-99.99,,,-99.99,Homeseer,2013-02-05 13:52:00,
2013-02-05 08:57:00,27.2,17.4,29.85,North,-999,-999.0,-999.0,55,-99.99,,,-99.99,Homeseer,2013-02-05 13:57:00,
2013-02-05 09:02:00,27.4,17.8,29.84,North,-999,-999.0,-999.0,56,-99.99,,,-99.99,Homeseer,2013-02-05 14:02:00,
2013-02-05 09:07:00,27.5,17.9,29.85,North,-999,-999.0,-999.0,56,-99.99,,,-99.99,Homeseer,2013-02-05 14:07:00,
2013-02-05 09:12:00,27.8,17.9,29.84,North,-999,-999.0,-999.0,55,-99.99,,,-99.99,Homeseer,2013-02-05 14:12:00,
2013-02-05 09:17:00,28.2,18.0,29.84,North,-999,-999.0,-999.0,54,-99.99,,,-99.99,Homeseer,2013-02-05 14:17:00,
2013-02-05 09:22:00,28.4,17.9,29.84,North,-999,-999.0,-999.0,53,-99.99,,,-99.99,Homeseer,2013-02-05 14:22:00,
2013-02-05 09:27:00,28.1,17.6,29.83,North,-999,-999.0,-999.0,53,-99.99,,,-99.99,Homeseer,2013-02-05 14:27:00,
2013-02-05 09:32:00,28.1,17.6,29.83,North,-999,-999.0,-999.0,53,-99.99,,,-99.99,Homeseer,2013-02-05 14:32:00,
2013-02-05 09:37:00,29.0,18.5,29.84,North,-999,-999.0,-999.0,53,-99.99,,,-99.99,Homeseer,2013-02-05 14:37:00,
2013-02-05 09:42:00,29.2,18.0,29.84,North,-999,-999.0,-999.0,51,-99.99,,,-99.99,Homeseer,2013-02-05 14:42:00,
2013-02-05 09:47:00,29.6,18.7,29.84,North,-999,-999.0,-999.0,52,-99.99,,,-99.99,Homeseer,2013-02-05 14:47:00,
2013-02-05 09:52:00,29.8,18.3,29.85,North,-999,-999.0,-999.0,50,-99.99,,,-99.99,Homeseer,2013-02-05 14:52:00,
2013-02-05 09:57:00,29.6,18.1,29.85,North,-999,-999.0,-999.0,50,-99.99,,,-99.99,Homeseer,2013-02-05 14:57:00,
2013-02-05 10:02:00,29.8,18.3,29.85,North,-999,-999.0,-999.0,50,-99.99,,,-99.99,Homeseer,2013-02-05 15:02:00,
2013-02-05 10:07:00,29.9,18.0,29.85,North,-999,-999.0,-999.0,49,-99.99,,,-99.99,Homeseer,2013-02-05 15:07:00,
2013-02-05 10:12:00,30.2,18.0,29.85,North,-999,-999.0,-999.0,48,-99.99,,,-99.99,Homeseer,2013-02-05 15:12:00,
2013-02-05 10:17:00,30.0,17.8,29.85,North,-999,-999.0,-999.0,48,-99.99,,,-99.99,Homeseer,2013-02-05 15:17:00,
2013-02-05 10:22:00,29.5,17.3,29.85,North,-999,-999.0,-999.0,48,-99.99,,,-99.99,Homeseer,2013-02-05 15:22:00,
2013-02-05 10:27:00,29.6,18.1,29.85,North,-999,-999.0,-999.0,50,-99.99,,,-99.99,Homeseer,2013-02-05 15:27:00,
2013-02-05 10:32:00,29.9,18.3,29.85,North,-999,-999.0,-999.0,50,-99.99,,,-99.99,Homeseer,2013-02-05 15:32:00,
2013-02-05 10:37:00,30.1,18.2,29.85,North,-999,-999.0,-999.0,49,-99.99,,,-99.99,Homeseer,2013-02-05 15:37:00,
2013-02-05 10:42:00,30.1,17.5,29.85,North,-999,-999.0,-999.0,47,-99.99,,,-99.99,Homeseer,2013-02-05 15:42:00,
2013-02-05 10:47:00,29.4,17.9,29.85,North,-999,-999.0,-999.0,50,-99.99,,,-99.99,Homeseer,2013-02-05 15:47:00,
2013-02-05 10:52:00,29.9,18.3,29.84,North,-999,-999.0,-999.0,50,-99.99,,,-99.99,Homeseer,2013-02-05 15:52:00,
2013-02-05 10:57:00,30.2,17.6,29.84,North,-999,-999.0,-999.0,47,-99.99,,,-99.99,Homeseer,2013-02-05 15:57:00,
2013-02-05 11:02:00,30.9,18.9,29.84,North,-999,-999.0,-999.0,49,-99.99,,,-99.99,Homeseer,2013-02-05 16:02:00,
2013-02-05 11:07:00,31.0,18.0,29.84,North,-999,-999.0,-999.0,46,-99.99,,,-99.99,Homeseer,2013-02-05 16:07:00,
2013-02-05 11:12:00,31.9,19.2,29.83,North,-999,-999.0,-999.0,47,-99.99,,,-99.99,Homeseer,2013-02-05 16:12:00,
2013-02-05 11:17:00,31.9,18.1,29.83,North,-999,-999.0,-999.0,44,-99.99,,,-99.99,Homeseer,2013-02-05 16:17:00,
2013-02-05 11:23:00,31.7,18.3,29.83,North,-999,-999.0,-999.0,45,-99.99,,,-99.99,Homeseer,2013-02-05 16:23:00,
2013-02-05 11:28:00,32.1,19.4,29.83,North,-999,-999.0,-999.0,47,-99.99,,,-99.99,Homeseer,2013-02-05 16:28:00,
2013-02-05 11:33:00,32.1,19.0,29.82,North,-999,-999.0,-999.0,46,-99.99,,,-99.99,Homeseer,2013-02-05 16:33:00,
2013-02-05 11:38:00,32.6,19.1,29.82,North,-999,-999.0,-999.0,45,-99.99,,,-99.99,Homeseer,2013-02-05 16:38:00,
2013-02-05 11:43:00,32.8,19.3,29.81,North,-999,-999.0,-999.0,45,-99.99,,,-99.99,Homeseer,2013-02-05 16:43:00,
2013-02-05 11:48:00,32.4,18.9,29.81,North,-999,-999.0,-999.0,45,-99.99,,,-99.99,Homeseer,2013-02-05 16:48:00,
2013-02-05 11:53:00,32.2,19.1,29.80,North,-999,-999.0,-999.0,46,-99.99,,,-99.99,Homeseer,2013-02-05 16:53:00,
2013-02-05 11:58:00,32.8,19.3,29.80,North,-999,-999.0,-999.0,45,-99.99,,,-99.99,Homeseer,2013-02-05 16:58:00,
2013-02-05 12:03:00,33.4,19.8,29.80,North,-999,-999.0,-999.0,45,-99.99,,,-99.99,Homeseer,2013-02-05 17:03:00,
2013-02-05 12:08:00,33.5,19.2,29.79,North,-999,-999.0,-999.0,43,-99.99,,,-99.99,Homeseer,2013-02-05 17:08:00,
2013-02-05 12:13:00,32.9,18.7,29.79,North,-999,-999.0,-999.0,43,-99.99,,,-99.99,Homeseer,2013-02-05 17:13:00,
2013-02-05 12:18:00,32.9,19.4,29.79,North,-999,-999.0,-999.0,45,-99.99,,,-99.99,Homeseer,2013-02-05 17:18:00,
2013-02-05 12:23:00,32.8,19.3,29.79,North,-999,-999.0,-999.0,45,-99.99,,,-99.99,Homeseer,2013-02-05 17:23:00,
2013-02-05 12:28:00,33.1,19.9,29.79,North,-999,-999.0,-999.0,46,-99.99,,,-99.99,Homeseer,2013-02-05 17:28:00,
2013-02-05 12:33:00,32.8,18.6,29.79,North,-999,-999.0,-999.0,43,-99.99,,,-99.99,Homeseer,2013-02-05 17:33:00,
2013-02-05 12:39:00,32.9,19.4,29.79,North,-999,-999.0,-999.0,45,-99.99,,,-99.99,Homeseer,2013-02-05 17:39:00,
2013-02-05 12:44:00,33.4,20.2,29.79,North,-999,-999.0,-999.0,46,-99.99,,,-99.99,Homeseer,2013-02-05 17:44:00,
2013-02-05 12:49:00,33.4,19.5,29.78,North,-999,-999.0,-999.0,44,-99.99,,,-99.99,Homeseer,2013-02-05 17:49:00,
2013-02-05 12:54:00,33.5,19.9,29.78,North,-999,-999.0,-999.0,45,-99.99,,,-99.99,Homeseer,2013-02-05 17:54:00,
2013-02-05 12:59:00,32.6,19.1,29.77,North,-999,-999.0,-999.0,45,-99.99,,,-99.99,Homeseer,2013-02-05 17:59:00,
2013-02-05 13:04:00,32.4,18.6,29.77,North,-999,-999.0,-999.0,44,-99.99,,,-99.99,Homeseer,2013-02-05 18:04:00,
2013-02-05 13:09:00,32.7,19.2,29.77,North,-999,-999.0,-999.0,45,-99.99,,,-99.99,Homeseer,2013-02-05 18:09:00,
2013-02-05 13:14:00,33.1,19.6,29.76,North,-999,-999.0,-999.0,45,-99.99,,,-99.99,Homeseer,2013-02-05 18:14:00,
2013-02-05 13:19:00,33.2,19.3,29.76,North,-999,-999.0,-999.0,44,-99.99,,,-99.99,Homeseer,2013-02-05 18:19:00,
2013-02-05 13:24:00,33.4,19.5,29.75,North,-999,-999.0,-999.0,44,-99.99,,,-99.99,Homeseer,2013-02-05 18:24:00,
2013-02-05 13:29:00,33.1,19.9,29.75,North,-999,-999.0,-999.0,46,-99.99,,,-99.99,Homeseer,2013-02-05 18:29:00,
2013-02-05 13:34:00,32.8,18.9,29.75,North,-999,-999.0,-999.0,44,-99.99,,,-99.99,Homeseer,2013-02-05 18:34:00,
2013-02-05 13:39:00,33.2,20.0,29.75,North,-999,-999.0,-999.0,46,-99.99,,,-99.99,Homeseer,2013-02-05 18:39:00,
2013-02-05 13:44:00,33.5,19.9,29.76,North,-999,-999.0,-999.0,45,-99.99,,,-99.99,Homeseer,2013-02-05 18:44:00,
2013-02-05 13:49:00,33.6,20.0,29.76,North,-999,-999.0,-999.0,45,-99.99,,,-99.99,Homeseer,2013-02-05 18:49:00,
2013-02-05 13:54:00,33.9,19.9,29.75,North,-999,-999.0,-999.0,44,-99.99,,,-99.99,Homeseer,2013-02-05 18:54:00,
2013-02-05 13:59:00,34.0,20.4,29.76,North,-999,-999.0,-999.0,45,-99.99,,,-99.99,Homeseer,2013-02-05 18:59:00,
2013-02-05 14:04:00,34.2,20.6,29.76,North,-999,-999.0,-999.0,45,-99.99,,,-99.99,Homeseer,2013-02-05 19:04:00,
2013-02-05 14:09:00,34.0,19.7,29.76,North,-999,-999.0,-999.0,43,-99.99,,,-99.99,Homeseer,2013-02-05 19:09:00,
2013-02-05 14:14:00,33.7,20.1,29.77,North,-999,-999.0,-999.0,45,-99.99,,,-99.99,Homeseer,2013-02-05 19:14:00,
2013-02-05 14:19:00,33.6,19.3,29.76,North,-999,-999.0,-999.0,43,-99.99,,,-99.99,Homeseer,2013-02-05 19:19:00,
2013-02-05 14:24:00,33.6,20.4,29.77,North,-999,-999.0,-999.0,46,-99.99,,,-99.99,Homeseer,2013-02-05 19:24:00,
2013-02-05 14:29:00,33.8,20.6,29.76,North,-999,-999.0,-999.0,46,-99.99,,,-99.99,Homeseer,2013-02-05 19:29:00,
2013-02-05 14:34:00,33.9,20.3,29.76,North,-999,-999.0,-999.0,45,-99.99,,,-99.99,Homeseer,2013-02-05 19:34:00,
2013-02-05 14:39:00,34.2,20.6,29.75,North,-999,-999.0,-999.0,45,-99.99,,,-99.99,Homeseer,2013-02-05 19:39:00,
2013-02-05 14:44:00,34.0,20.4,29.75,North,-999,-999.0,-999.0,45,-99.99,,,-99.99,Homeseer,2013-02-05 19:44:00,
2013-02-05 14:49:00,33.7,19.8,29.75,North,-999,-999.0,-999.0,44,-99.99,,,-99.99,Homeseer,2013-02-05 19:49:00,
2013-02-05 14:54:00,33.6,20.0,29.75,North,-999,-999.0,-999.0,45,-99.99,,,-99.99,Homeseer,2013-02-05 19:54:00,
2013-02-05 14:59:00,33.8,20.2,29.75,North,-999,-999.0,-999.0,45,-99.99,,,-99.99,Homeseer,2013-02-05 19:59:00,
2013-02-05 15:04:00,33.8,20.2,29.75,North,-999,-999.0,-999.0,45,-99.99,,,-99.99,Homeseer,2013-02-05 20:04:00,
2013-02-05 15:10:00,33.4,19.5,29.75,North,-999,-999.0,-999.0,44,-99.99,,,-99.99,Homeseer,2013-02-05 20:10:00,
2013-02-05 15:15:00,33.4,20.2,29.75,North,-999,-999.0,-999.0,46,-99.99,,,-99.99,Homeseer,2013-02-05 20:15:00,
2013-02-05 15:20:00,33.2,20.0,29.74,North,-999,-999.0,-999.0,46,-99.99,,,-99.99,Homeseer,2013-02-05 20:20:00,
2013-02-05 15:25:00,33.1,19.9,29.73,North,-999,-999.0,-999.0,46,-99.99,,,-99.99,Homeseer,2013-02-05 20:25:00,
2013-02-05 15:30:00,32.9,20.1,29.73,North,-999,-999.0,-999.0,47,-99.99,,,-99.99,Homeseer,2013-02-05 20:30:00,
2013-02-05 15:35:00,32.9,20.1,29.73,North,-999,-999.0,-999.0,47,-99.99,,,-99.99,Homeseer,2013-02-05 20:35:00,
2013-02-05 15:40:00,32.8,20.0,29.73,North,-999,-999.0,-999.0,47,-99.99,,,-99.99,Homeseer,2013-02-05 20:40:00,
2013-02-05 15:45:00,32.8,20.3,29.73,North,-999,-999.0,-999.0,48,-99.99,,,-99.99,Homeseer,2013-02-05 20:45:00,
2013-02-05 15:50:00,32.9,20.8,29.73,North,-999,-999.0,-999.0,49,-99.99,,,-99.99,Homeseer,2013-02-05 20:50:00,
2013-02-05 15:55:00,32.9,20.1,29.73,North,-999,-999.0,-999.0,47,-99.99,,,-99.99,Homeseer,2013-02-05 20:55:00,
2013-02-05 16:00:00,32.9,20.1,29.73,North,-999,-999.0,-999.0,47,-99.99,,,-99.99,Homeseer,2013-02-05 21:00:00,
2013-02-05 16:05:00,32.6,20.2,29.72,North,-999,-999.0,-999.0,48,-99.99,,,-99.99,Homeseer,2013-02-05 21:05:00,
2013-02-05 16:10:00,32.7,20.3,29.73,North,-999,-999.0,-999.0,48,-99.99,,,-99.99,Homeseer,2013-02-05 21:10:00,
2013-02-05 16:15:00,32.4,20.3,29.73,North,-999,-999.0,-999.0,49,-99.99,,,-99.99,Homeseer,2013-02-05 21:15:00,
2013-02-05 16:20:00,32.3,20.2,29.73,North,-999,-999.0,-999.0,49,-99.99,,,-99.99,Homeseer,2013-02-05 21:20:00,
2013-02-05 16:25:00,32.1,20.4,29.73,North,-999,-999.0,-999.0,50,-99.99,,,-99.99,Homeseer,2013-02-05 21:25:00,
2013-02-05 16:30:00,32.1,20.4,29.73,North,-999,-999.0,-999.0,50,-99.99,,,-99.99,Homeseer,2013-02-05 21:30:00,
2013-02-05 16:35:00,32.2,20.5,29.73,North,-999,-999.0,-999.0,50,-99.99,,,-99.99,Homeseer,2013-02-05 21:35:00,
2013-02-05 16:40:00,32.1,20.7,29.73,North,-999,-999.0,-999.0,51,-99.99,,,-99.99,Homeseer,2013-02-05 21:40:00,
2013-02-05 16:45:00,32.0,20.3,29.73,North,-999,-999.0,-999.0,50,-99.99,,,-99.99,Homeseer,2013-02-05 21:45:00,
2013-02-05 16:50:00,31.9,20.8,29.73,North,-999,-999.0,-999.0,52,-99.99,,,-99.99,Homeseer,2013-02-05 21:50:00,
2013-02-05 16:56:00,31.7,20.6,29.74,North,-999,-999.0,-999.0,52,-99.99,,,-99.99,Homeseer,2013-02-05 21:56:00,
2013-02-05 17:01:00,31.6,20.9,29.74,North,-999,-999.0,-999.0,53,-99.99,,,-99.99,Homeseer,2013-02-05 22:01:00,
2013-02-05 17:06:00,31.6,20.5,29.74,North,-999,-999.0,-999.0,52,-99.99,,,-99.99,Homeseer,2013-02-05 22:06:00,
2013-02-05 17:11:00,31.6,20.9,29.73,North,-999,-999.0,-999.0,53,-99.99,,,-99.99,Homeseer,2013-02-05 22:11:00,
2013-02-05 17:16:00,31.4,20.4,29.73,North,-999,-999.0,-999.0,52,-99.99,,,-99.99,Homeseer,2013-02-05 22:16:00,
2013-02-05 17:21:00,31.3,20.3,29.73,North,-999,-999.0,-999.0,52,-99.99,,,-99.99,Homeseer,2013-02-05 22:21:00,
2013-02-05 17:27:00,31.1,20.7,29.72,North,-999,-999.0,-999.0,54,-99.99,,,-99.99,Homeseer,2013-02-05 22:27:00,
2013-02-05 17:33:00,31.0,20.6,29.73,North,-999,-999.0,-999.0,54,-99.99,,,-99.99,Homeseer,2013-02-05 22:33:00,
2013-02-05 17:38:00,31.0,20.9,29.73,North,-999,-999.0,-999.0,55,-99.99,,,-99.99,Homeseer,2013-02-05 22:38:00,
2013-02-05 17:43:00,30.8,21.0,29.73,North,-999,-999.0,-999.0,56,-99.99,,,-99.99,Homeseer,2013-02-05 22:43:00,
2013-02-05 17:48:00,30.6,20.8,29.73,North,-999,-999.0,-999.0,56,-99.99,,,-99.99,Homeseer,2013-02-05 22:48:00,
2013-02-05 17:53:00,30.5,20.7,29.73,North,-999,-999.0,-999.0,56,-99.99,,,-99.99,Homeseer,2013-02-05 22:53:00,
2013-02-05 17:58:00,30.4,20.6,29.73,North,-999,-999.0,-999.0,56,-99.99,,,-99.99,Homeseer,2013-02-05 22:58:00,
2013-02-05 18:03:00,30.4,20.6,29.73,North,-999,-999.0,-999.0,56,-99.99,,,-99.99,Homeseer,2013-02-05 23:03:00,
2013-02-05 18:08:00,30.4,20.6,29.74,North,-999,-999.0,-999.0,56,-99.99,,,-99.99,Homeseer,2013-02-05 23:08:00,
2013-02-05 18:13:00,30.4,20.9,29.73,North,-999,-999.0,-999.0,57,-99.99,,,-99.99,Homeseer,2013-02-05 23:13:00,
2013-02-05 18:18:00,30.3,21.1,29.74,North,-999,-999.0,-999.0,58,-99.99,,,-99.99,Homeseer,2013-02-05 23:18:00,
2013-02-05 18:23:00,30.1,20.9,29.75,North,-999,-999.0,-999.0,58,-99.99,,,-99.99,Homeseer,2013-02-05 23:23:00,
2013-02-05 18:28:00,30.0,21.7,29.75,North,-999,-999.0,-999.0,61,-99.99,,,-99.99,Homeseer,2013-02-05 23:28:00,
2013-02-05 18:33:00,29.9,21.3,29.75,North,-999,-999.0,-999.0,60,-99.99,,,-99.99,Homeseer,2013-02-05 23:33:00,
2013-02-05 18:38:00,29.9,21.3,29.74,North,-999,-999.0,-999.0,60,-99.99,,,-99.99,Homeseer,2013-02-05 23:38:00,
2013-02-05 18:43:00,29.8,21.2,29.74,North,-999,-999.0,-999.0,60,-99.99,,,-99.99,Homeseer,2013-02-05 23:43:00,
2013-02-05 18:48:00,29.8,21.2,29.74,North,-999,-999.0,-999.0,60,-99.99,,,-99.99,Homeseer,2013-02-05 23:48:00,
2013-02-05 18:53:00,29.8,21.2,29.75,North,-999,-999.0,-999.0,60,-99.99,,,-99.99,Homeseer,2013-02-05 23:53:00,
2013-02-05 18:58:00,29.8,21.2,29.75,North,-999,-999.0,-999.0,60,-99.99,,,-99.99,Homeseer,2013-02-05 23:58:00,
2013-02-05 19:03:00,29.8,21.5,29.75,North,-999,-999.0,-999.0,61,-99.99,,,-99.99,Homeseer,2013-02-06 00:03:00,
2013-02-05 19:08:00,29.8,21.5,29.75,North,-999,-999.0,-999.0,61,-99.99,,,-99.99,Homeseer,2013-02-06 00:08:00,
2013-02-05 19:14:00,29.9,21.6,29.75,North,-999,-999.0,-999.0,61,-99.99,,,-99.99,Homeseer,2013-02-06 00:14:00,
2013-02-05 19:19:00,29.9,21.8,29.75,North,-999,-999.0,-999.0,62,-99.99,,,-99.99,Homeseer,2013-02-06 00:19:00,
2013-02-05 19:24:00,29.9,22.1,29.75,North,-999,-999.0,-999.0,63,-99.99,,,-99.99,Homeseer,2013-02-06 00:24:00,
2013-02-05 19:29:00,29.8,21.7,29.75,North,-999,-999.0,-999.0,62,-99.99,,,-99.99,Homeseer,2013-02-06 00:29:00,
2013-02-05 19:34:00,29.9,22.1,29.75,North,-999,-999.0,-999.0,63,-99.99,,,-99.99,Homeseer,2013-02-06 00:34:00,
2013-02-05 19:39:00,29.9,22.1,29.75,North,-999,-999.0,-999.0,63,-99.99,,,-99.99,Homeseer,2013-02-06 00:39:00,
2013-02-05 19:44:00,29.8,22.0,29.74,North,-999,-999.0,-999.0,63,-99.99,,,-99.99,Homeseer,2013-02-06 00:44:00,
2013-02-05 19:50:00,29.9,22.1,29.75,North,-999,-999.0,-999.0,63,-99.99,,,-99.99,Homeseer,2013-02-06 00:50:00,
2013-02-05 19:55:00,29.9,22.1,29.75,North,-999,-999.0,-999.0,63,-99.99,,,-99.99,Homeseer,2013-02-06 00:55:00,
2013-02-05 20:00:00,30.1,22.3,29.75,North,-999,-999.0,-999.0,63,-99.99,,,-99.99,Homeseer,2013-02-06 01:00:00,
2013-02-05 20:05:00,30.1,22.3,29.75,North,-999,-999.0,-999.0,63,-99.99,,,-99.99,Homeseer,2013-02-06 01:05:00,
2013-02-05 20:10:00,30.1,22.3,29.75,North,-999,-999.0,-999.0,63,-99.99,,,-99.99,Homeseer,2013-02-06 01:10:00,
2013-02-05 20:15:00,30.2,22.4,29.75,North,-999,-999.0,-999.0,63,-99.99,,,-99.99,Homeseer,2013-02-06 01:15:00,
2013-02-05 20:20:00,30.3,22.5,29.76,North,-999,-999.0,-999.0,63,-99.99,,,-99.99,Homeseer,2013-02-06 01:20:00,
2013-02-05 20:26:00,30.2,22.4,29.76,North,-999,-999.0,-999.0,63,-99.99,,,-99.99,Homeseer,2013-02-06 01:26:00,
2013-02-05 20:31:00,30.2,22.4,29.76,North,-999,-999.0,-999.0,63,-99.99,,,-99.99,Homeseer,2013-02-06 01:31:00,
2013-02-05 20:36:00,30.2,22.6,29.75,North,-999,-999.0,-999.0,64,-99.99,,,-99.99,Homeseer,2013-02-06 01:36:00,
2013-02-05 20:41:00,30.1,22.5,29.75,North,-999,-999.0,-999.0,64,-99.99,,,-99.99,Homeseer,2013-02-06 01:41:00,
2013-02-05 20:46:00,30.1,22.5,29.75,North,-999,-999.0,-999.0,64,-99.99,,,-99.99,Homeseer,2013-02-06 01:46:00,
2013-02-05 20:51:00,29.8,22.8,29.75,North,-999,-999.0,-999.0,66,-99.99,,,-99.99,Homeseer,2013-02-06 01:51:00,
2013-02-05 20:57:00,29.9,22.6,29.75,North,-999,-999.0,-999.0,65,-99.99,,,-99.99,Homeseer,2013-02-06 01:57:00,
2013-02-05 21:02:00,29.9,22.9,29.76,North,-999,-999.0,-999.0,66,-99.99,,,-99.99,Homeseer,2013-02-06 02:02:00,
2013-02-05 21:08:00,29.8,22.8,29.76,North,-999,-999.0,-999.0,66,-99.99,,,-99.99,Homeseer,2013-02-06 02:08:00,
2013-02-05 21:13:00,29.6,22.8,29.76,North,-999,-999.0,-999.0,67,-99.99,,,-99.99,Homeseer,2013-02-06 02:13:00,
2013-02-05 21:18:00,29.6,22.8,29.76,North,-999,-999.0,-999.0,67,-99.99,,,-99.99,Homeseer,2013-02-06 02:18:00,
2013-02-05 21:23:00,29.6,22.8,29.76,North,-999,-999.0,-999.0,67,-99.99,,,-99.99,Homeseer,2013-02-06 02:23:00,
2013-02-05 21:28:00,29.6,22.8,29.76,North,-999,-999.0,-999.0,67,-99.99,,,-99.99,Homeseer,2013-02-06 02:28:00,
2013-02-05 21:33:00,29.8,23.0,29.76,North,-999,-999.0,-999.0,67,-99.99,,,-99.99,Homeseer,2013-02-06 02:33:00,
2013-02-05 21:38:00,29.8,23.3,29.76,North,-999,-999.0,-999.0,68,-99.99,,,-99.99,Homeseer,2013-02-06 02:38:00,
2013-02-05 21:43:00,29.9,23.4,29.76,North,-999,-999.0,-999.0,68,-99.99,,,-99.99,Homeseer,2013-02-06 02:43:00,
2013-02-05 21:48:00,29.9,23.4,29.75,North,-999,-999.0,-999.0,68,-99.99,,,-99.99,Homeseer,2013-02-06 02:48:00,
2013-02-05 21:53:00,29.9,23.4,29.75,North,-999,-999.0,-999.0,68,-99.99,,,-99.99,Homeseer,2013-02-06 02:53:00,
2013-02-05 21:58:00,29.6,23.8,29.75,North,-999,-999.0,-999.0,71,-99.99,,,-99.99,Homeseer,2013-02-06 02:58:00,
2013-02-05 22:04:00,29.6,23.8,29.75,North,-999,-999.0,-999.0,71,-99.99,,,-99.99,Homeseer,2013-02-06 03:04:00,
2013-02-05 22:09:00,29.6,23.8,29.75,North,-999,-999.0,-999.0,71,-99.99,,,-99.99,Homeseer,2013-02-06 03:09:00,
2013-02-05 22:14:00,29.6,23.8,29.75,North,-999,-999.0,-999.0,71,-99.99,,,-99.99,Homeseer,2013-02-06 03:14:00,
2013-02-05 22:19:00,29.6,24.0,29.75,North,-999,-999.0,-999.0,72,-99.99,,,-99.99,Homeseer,2013-02-06 03:19:00,
2013-02-05 22:24:00,29.5,23.9,29.74,North,-999,-999.0,-999.0,72,-99.99,,,-99.99,Homeseer,2013-02-06 03:24:00,
2013-02-05 22:29:00,29.6,24.0,29.74,North,-999,-999.0,-999.0,72,-99.99,,,-99.99,Homeseer,2013-02-06 03:29:00,
2013-02-05 22:34:00,29.6,24.2,29.74,North,-999,-999.0,-999.0,73,-99.99,,,-99.99,Homeseer,2013-02-06 03:34:00,
2013-02-05 22:39:00,29.4,24.3,29.74,North,-999,-999.0,-999.0,74,-99.99,,,-99.99,Homeseer,2013-02-06 03:39:00,
2013-02-05 22:44:00,29.4,24.3,29.74,North,-999,-999.0,-999.0,74,-99.99,,,-99.99,Homeseer,2013-02-06 03:44:00,
2013-02-05 22:50:00,29.4,24.3,29.73,North,-999,-999.0,-999.0,74,-99.99,,,-99.99,Homeseer,2013-02-06 03:50:00,
2013-02-05 22:55:00,29.4,24.5,29.73,North,-999,-999.0,-999.0,75,-99.99,,,-99.99,Homeseer,2013-02-06 03:55:00,
2013-02-05 23:00:00,29.4,24.5,29.73,North,-999,-999.0,-999.0,75,-99.99,,,-99.99,Homeseer,2013-02-06 04:00:00,
2013-02-05 23:05:00,29.3,24.4,29.73,North,-999,-999.0,-999.0,75,-99.99,,,-99.99,Homeseer,2013-02-06 04:05:00,
2013-02-05 23:10:00,29.3,25.1,29.73,North,-999,-999.0,-999.0,78,-99.99,,,-99.99,Homeseer,2013-02-06 04:10:00,
2013-02-05 23:15:00,29.1,25.1,29.73,North,-999,-999.0,-999.0,79,-99.99,,,-99.99,Homeseer,2013-02-06 04:15:00,
2013-02-05 23:20:00,29.0,25.4,29.73,North,-999,-999.0,-999.0,81,-99.99,,,-99.99,Homeseer,2013-02-06 04:20:00,
2013-02-05 23:25:00,28.6,25.4,29.73,North,-999,-999.0,-999.0,83,-99.99,,,-99.99,Homeseer,2013-02-06 04:25:00,
2013-02-05 23:30:00,29.0,25.2,29.73,North,-999,-999.0,-999.0,80,-99.99,,,-99.99,Homeseer,2013-02-06 04:30:00,
2013-02-05 23:35:00,28.7,25.1,29.73,North,-999,-999.0,-999.0,81,-99.99,,,-99.99,Homeseer,2013-02-06 04:35:00,
2013-02-05 23:40:00,28.5,25.3,29.73,North,-999,-999.0,-999.0,83,-99.99,,,-99.99,Homeseer,2013-02-06 04:40:00,
2013-02-05 23:45:00,28.6,25.0,29.73,North,-999,-999.0,-999.0,81,-99.99,,,-99.99,Homeseer,2013-02-06 04:45:00,
2013-02-05 23:50:00,28.5,25.3,29.73,North,-999,-999.0,-999.0,83,-99.99,,,-99.99,Homeseer,2013-02-06 04:50:00,
2013-02-05 23:55:00,28.4,25.6,29.73,North,-999,-999.0,-999.0,85,-99.99,,,-99.99,Homeseer,2013-02-06 04:55:00,